Terminal Aerodrome Forecast
Issued by NWS

Home | Current Version | Previous Version | Text Only | Print | Product List | Glossary On
Versions: 1 2 3 4 5 6 7 8 9 10 11 12 13 14 15
000
FTUS46 KLOX 050500 RRA
TAFOXR
TAF
KOXR 050544Z 0506/0606 05006KT P6SM SCT250
     FM051000 06010KT P6SM SKC
     FM051700 07014G22KT P6SM SKC
     FM052200 29010KT P6SM SKC
     FM060400 VRB03KT P6SM SKC=

USA.gov is the U.S. government's official web portal to all federal, state and local government web resources and services.